Time;durP1;ratioP1;P1;durP2;ratioP2;P2;SDS_P1;SDS_P2;PMS_P1;PMS_P2;Temp;Humidity;BMP_temperature;BMP_pressure;BME280_temperature;BME280_humidity;BME280_pressure;Samples;Min_cycle;Max_cycle;Signal;HPM_P1;HPM_P2
2021/06/09 00:01:35;;;;;;;6.15;4.08;;;;;;;14.98;62.17;96808.22;1750550;81;20920;-76
2021/06/09 00:04:01;;;;;;;4.85;4.15;;;;;;;14.97;62.39;96808.72;1748098;81;20937;-76
2021/06/09 00:06:27;;;;;;;4.25;3.85;;;;;;;14.98;62.22;96809.02;1773488;80;20940;-76
2021/06/09 00:08:53;;;;;;;4.42;4.03;;;;;;;15.03;62.55;96811.53;1775365;81;20948;-76
2021/06/09 00:11:18;;;;;;;7.10;5.03;;;;;;;15.03;62.28;96808.42;1776221;80;20940;-77
2021/06/09 00:13:44;;;;;;;4.83;4.10;;;;;;;15.02;62.12;96806.80;1749981;80;20949;-76
2021/06/09 00:16:14;;;;;;;4.78;3.80;;;;;;;15.00;62.23;96806.20;1764290;80;21301;-76
2021/06/09 00:18:40;;;;;;;5.47;4.03;;;;;;;14.95;62.74;96806.77;1708858;82;21054;-76
2021/06/09 00:21:06;;;;;;;5.62;4.15;;;;;;;14.90;62.97;96809.70;1770027;81;21289;-76
2021/06/09 00:23:32;;;;;;;6.05;4.40;;;;;;;14.85;63.30;96808.98;1776789;80;21032;-76
2021/06/09 00:26:01;;;;;;;5.58;4.15;;;;;;;14.81;63.41;96813.52;1746619;80;21007;-76
2021/06/09 00:28:25;;;;;;;5.55;4.03;;;;;;;14.77;63.06;96809.16;1764275;81;20973;-76
2021/06/09 00:30:52;;;;;;;5.10;4.47;;;;;;;14.76;63.08;96811.47;1769923;80;21024;-76
2021/06/09 00:33:17;;;;;;;5.05;4.15;;;;;;;14.77;62.87;96810.97;1770630;80;21246;-76
2021/06/09 00:35:43;;;;;;;5.35;3.85;;;;;;;14.78;63.08;96817.30;1766171;80;20889;-76
2021/06/09 00:38:09;;;;;;;5.47;4.75;;;;;;;14.75;63.05;96817.70;1776574;81;20921;-77
2021/06/09 00:40:35;;;;;;;5.37;4.85;;;;;;;14.72;63.14;96810.25;1774136;81;21230;-76
2021/06/09 00:43:16;;;;;;;5.10;4.40;;;;;;;14.71;63.28;96808.14;1772402;81;20985;-76
2021/06/09 00:45:45;;;;;;;5.37;4.50;;;;;;;14.69;63.45;96805.42;1752885;80;20993;-76
2021/06/09 00:48:11;;;;;;;6.00;4.60;;;;;;;14.66;64.05;96809.75;1751397;81;20977;-76
2021/06/09 00:50:37;;;;;;;6.15;4.70;;;;;;;14.62;64.05;96813.23;1772798;81;20897;-76
2021/06/09 00:55:48;;;;;;;5.55;4.12;;;;;;;14.62;63.89;96807.20;1756276;81;20957;-77
2021/06/09 00:58:13;;;;;;;6.05;5.00;;;;;;;14.63;64.11;96813.53;1778839;81;20965;-76
2021/06/09 01:00:41;;;;;;;5.20;4.47;;;;;;;14.67;63.88;96811.36;1776986;80;21023;-76
2021/06/09 01:03:07;;;;;;;6.35;4.87;;;;;;;14.68;64.29;96807.73;1768918;81;21240;-76
2021/06/09 01:05:33;;;;;;;7.08;4.70;;;;;;;14.68;64.62;96802.50;1772708;81;20949;-76
2021/06/09 01:08:01;;;;;;;7.50;5.22;;;;;;;14.69;64.37;96801.00;1774238;80;21253;-77
2021/06/09 01:10:27;;;;;;;6.20;5.10;;;;;;;14.69;64.64;96798.89;1768226;81;21231;-77
2021/06/09 01:12:54;;;;;;;7.25;4.95;;;;;;;14.67;64.94;96799.59;1762212;80;20887;-77
2021/06/09 01:15:19;;;;;;;7.03;4.62;;;;;;;14.66;65.26;96803.20;1774535;81;20964;-77
2021/06/09 01:17:45;;;;;;;5.03;4.53;;;;;;;14.67;65.35;96803.00;1769056;80;20945;-77
2021/06/09 01:20:11;;;;;;;6.80;5.00;;;;;;;14.70;64.89;96801.30;1742779;81;20889;-77
2021/06/09 01:22:37;;;;;;;6.45;5.05;;;;;;;14.75;64.92;96797.28;1771512;81;21059;-76
2021/06/09 01:25:05;;;;;;;6.15;5.55;;;;;;;14.76;64.96;96798.39;1775663;81;21008;-76
2021/06/09 01:27:31;;;;;;;5.97;5.33;;;;;;;14.77;64.93;96803.92;1775341;81;21251;-77
2021/06/09 01:30:01;;;;;;;6.00;4.90;;;;;;;14.79;65.05;96798.48;1768813;81;21060;-77
2021/06/09 01:32:27;;;;;;;5.67;5.08;;;;;;;14.79;65.61;96799.30;1778659;80;20952;-77
2021/06/09 01:34:53;;;;;;;7.83;5.80;;;;;;;14.80;65.49;96797.48;1777572;80;20928;-76
2021/06/09 01:37:19;;;;;;;8.10;6.12;;;;;;;14.80;65.60;96795.67;1690678;82;21238;-76
2021/06/09 01:39:45;;;;;;;6.20;5.33;;;;;;;14.83;65.71;96799.73;1777068;81;20893;-77
2021/06/09 01:42:11;;;;;;;6.83;5.17;;;;;;;14.86;65.62;96795.41;1777203;80;21039;-77
2021/06/09 01:44:40;;;;;;;6.15;4.92;;;;;;;14.89;65.83;96795.00;1768621;80;20940;-76
2021/06/09 01:47:07;;;;;;;6.55;5.40;;;;;;;14.90;65.48;96792.19;1730355;82;20983;-76
2021/06/09 01:49:33;;;;;;;6.20;5.60;;;;;;;14.90;65.70;96787.45;1775140;81;20972;-77
2021/06/09 01:51:59;;;;;;;6.97;5.28;;;;;;;14.86;65.64;96799.33;1778231;80;21261;-76
2021/06/09 01:54:25;;;;;;;6.40;5.15;;;;;;;14.83;66.12;96794.50;1737566;82;20970;-76
2021/06/09 01:56:51;;;;;;;8.73;5.97;;;;;;;14.81;66.01;96799.13;1771339;80;20945;-76
2021/06/09 01:59:19;;;;;;;6.62;5.12;;;;;;;14.77;65.96;96790.84;1775933;80;21028;-76
2021/06/09 02:01:47;;;;;;;6.12;5.47;;;;;;;14.75;65.87;96790.23;1777897;81;21001;-76
2021/06/09 02:04:14;;;;;;;5.80;5.25;;;;;;;14.76;66.16;96785.81;1775383;81;21008;-76
2021/06/09 02:06:40;;;;;;;6.03;5.42;;;;;;;14.76;66.03;96780.08;1726788;81;21314;-77
2021/06/09 02:09:07;;;;;;;7.50;5.03;;;;;;;14.75;66.30;96775.84;1769321;80;20972;-76
2021/06/09 02:11:32;;;;;;;6.28;5.67;;;;;;;14.71;66.81;96775.95;1771447;81;20965;-76
2021/06/09 02:13:59;;;;;;;8.30;5.15;;;;;;;14.66;66.46;96784.39;1771531;81;20940;-76
2021/06/09 02:16:25;;;;;;;6.97;5.70;;;;;;;14.58;66.41;96777.22;1724787;82;20916;-76
2021/06/09 02:18:51;;;;;;;7.90;5.65;;;;;;;14.59;66.58;96777.02;1752052;80;20880;-76
2021/06/09 02:21:16;;;;;;;7.65;5.47;;;;;;;14.59;66.44;96785.36;1764876;81;20964;-76
2021/06/09 02:23:46;;;;;;;7.50;5.53;;;;;;;14.58;66.76;96781.14;1762983;80;21016;-76
2021/06/09 02:26:10;;;;;;;8.00;5.30;;;;;;;14.56;66.95;96782.64;1761129;81;21242;-77
2021/06/09 02:28:35;;;;;;;8.48;5.40;;;;;;;14.55;66.89;96777.61;1738871;82;20948;-77
2021/06/09 02:31:01;;;;;;;5.92;5.12;;;;;;;14.53;66.72;96780.43;1755655;80;20921;-76
2021/06/09 02:33:27;;;;;;;6.70;5.33;;;;;;;14.51;66.79;96781.63;1715172;82;20934;-77
2021/06/09 02:35:54;;;;;;;7.22;5.87;;;;;;;14.46;66.88;96782.20;1770289;80;21277;-77
2021/06/09 02:38:21;;;;;;;7.37;5.62;;;;;;;14.42;66.80;96773.92;1753352;80;20972;-76
2021/06/09 02:40:50;;;;;;;9.35;5.50;;;;;;;14.38;67.07;96774.52;1765187;79;21293;-76
2021/06/09 02:43:16;;;;;;;6.65;6.03;;;;;;;14.35;67.37;96771.80;1774639;80;21297;-76
2021/06/09 02:45:45;;;;;;;8.30;5.62;;;;;;;14.34;67.39;96776.72;1753954;80;21008;-76
2021/06/09 02:48:12;;;;;;;5.78;4.95;;;;;;;14.38;67.44;96774.52;1775608;80;21017;-76
2021/06/09 02:50:39;;;;;;;6.65;5.55;;;;;;;14.38;67.46;96775.82;1729698;82;20981;-76
2021/06/09 02:53:13;;;;;;;7.05;5.92;;;;;;;14.35;67.58;96773.09;1766343;80;20978;-76
2021/06/09 02:56:09;;;;;;;6.45;5.58;;;;;;;14.34;67.49;96775.41;1777279;81;21020;-76
2021/06/09 02:58:55;;;;;;;8.50;6.40;;;;;;;14.33;67.57;96781.64;1745671;81;20973;-76
2021/06/09 03:01:35;;;;;;;6.55;5.45;;;;;;;14.30;68.01;96779.89;1756897;81;20964;-76
2021/06/09 03:04:34;;;;;;;7.03;5.70;;;;;;;14.31;67.89;96777.08;1776635;81;20996;-76
2021/06/09 03:07:09;;;;;;;6.53;5.58;;;;;;;14.32;67.74;96781.84;1628846;86;20971;-76
2021/06/09 03:10:07;;;;;;;7.12;5.55;;;;;;;14.33;67.86;96783.45;1747011;81;20931;-76
2021/06/09 03:12:48;;;;;;;6.45;5.65;;;;;;;14.31;67.80;96784.13;1755788;81;20945;-76
2021/06/09 03:15:40;;;;;;;6.55;5.62;;;;;;;14.28;68.17;96777.98;1754926;80;21297;-77
2021/06/09 03:18:24;;;;;;;6.58;5.60;;;;;;;14.27;67.95;96781.09;1764526;80;20914;-76
2021/06/09 03:21:07;;;;;;;7.70;5.58;;;;;;;14.25;67.99;96780.48;1772755;80;20913;-76
2021/06/09 03:24:07;;;;;;;6.83;5.35;;;;;;;14.24;67.86;96786.72;1738334;81;21024;-77
2021/06/09 03:26:56;;;;;;;8.25;5.92;;;;;;;14.26;68.04;96786.02;1771179;81;20948;-76
2021/06/09 03:29:45;;;;;;;7.42;6.08;;;;;;;14.28;68.04;96789.24;1773784;80;21305;-76
2021/06/09 03:32:28;;;;;;;7.65;6.25;;;;;;;14.29;68.37;96791.36;1747623;81;21025;-76
2021/06/09 03:35:04;;;;;;;8.80;6.22;;;;;;;14.28;68.15;96794.47;1768260;81;20988;-76
2021/06/09 03:37:34;;;;;;;8.33;5.90;;;;;;;14.27;68.19;96799.39;1766041;81;20983;-76
2021/06/09 03:39:59;;;;;;;7.58;5.95;;;;;;;14.25;68.67;96796.17;1769285;81;21013;-76
2021/06/09 03:42:29;;;;;;;7.17;6.22;;;;;;;14.22;68.53;96793.14;1771148;80;21048;-76
2021/06/09 03:44:57;;;;;;;9.38;6.25;;;;;;;14.21;68.74;96796.27;1711580;82;20967;-76
2021/06/09 03:47:23;;;;;;;7.87;5.62;;;;;;;14.22;68.86;96798.38;1777085;80;20928;-76
2021/06/09 03:49:49;;;;;;;7.85;6.12;;;;;;;14.22;68.96;96795.26;1776035;81;21012;-76
2021/06/09 03:52:15;;;;;;;9.05;5.90;;;;;;;14.22;69.45;96792.64;1773847;80;21304;-76
2021/06/09 03:54:46;;;;;;;8.53;6.62;;;;;;;14.20;69.78;96785.50;1764314;81;21071;-76
2021/06/09 03:57:12;;;;;;;7.58;6.20;;;;;;;14.21;69.71;96792.34;1749340;81;20937;-76
2021/06/09 03:59:38;;;;;;;7.35;6.60;;;;;;;14.24;70.01;96787.22;1778889;80;20974;-76
2021/06/09 04:02:07;;;;;;;6.40;5.65;;;;;;;14.24;70.07;96785.41;1773990;81;20952;-76
2021/06/09 04:04:33;;;;;;;9.05;6.85;;;;;;;14.28;69.77;96797.58;1777155;80;20919;-77
2021/06/09 04:06:58;;;;;;;7.80;7.00;;;;;;;14.34;70.27;96791.59;1749198;81;20979;-77
2021/06/09 04:09:24;;;;;;;8.60;6.25;;;;;;;14.37;70.19;96797.23;1767863;80;21195;-76
2021/06/09 04:11:57;;;;;;;8.15;6.83;;;;;;;14.39;70.06;96800.45;1777132;80;20885;-76
2021/06/09 04:14:24;;;;;;;8.15;6.70;;;;;;;14.41;69.99;96797.14;1754409;80;21270;-77
2021/06/09 04:16:52;;;;;;;7.65;6.80;;;;;;;14.42;70.11;96794.83;1754283;80;21015;-77
2021/06/09 04:19:22;;;;;;;10.93;7.80;;;;;;;14.42;70.36;96790.91;1762334;80;21023;-77
2021/06/09 04:21:47;;;;;;;7.70;7.00;;;;;;;14.39;70.27;96780.05;1777930;81;20928;-77
2021/06/09 04:24:13;;;;;;;7.35;6.60;;;;;;;14.48;70.38;96791.16;1775236;80;20937;-77
2021/06/09 04:26:39;;;;;;;9.63;7.00;;;;;;;14.52;70.30;96793.70;1727603;81;21855;-77
2021/06/09 04:29:05;;;;;;;9.25;7.33;;;;;;;14.52;70.71;96797.63;1761324;80;20916;-77
2021/06/09 04:31:31;;;;;;;7.33;6.62;;;;;;;14.51;70.69;96797.32;1776128;80;20893;-77
2021/06/09 04:33:57;;;;;;;7.10;6.40;;;;;;;14.52;70.74;96802.86;1768393;80;20936;-77
2021/06/09 04:36:23;;;;;;;7.53;6.72;;;;;;;14.53;71.10;96804.47;1772651;80;20963;-77
2021/06/09 04:38:49;;;;;;;11.08;7.20;;;;;;;14.54;71.11;96800.34;1777434;80;20957;-77
2021/06/09 04:41:15;;;;;;;10.35;7.42;;;;;;;14.59;71.37;96809.70;1778353;80;20909;-77
2021/06/09 04:43:41;;;;;;;8.40;7.55;;;;;;;14.62;71.33;96808.00;1774911;80;21295;-77
2021/06/09 04:46:07;;;;;;;8.53;6.67;;;;;;;14.66;71.41;96807.13;1758422;81;21258;-77
2021/06/09 04:48:33;;;;;;;11.03;6.80;;;;;;;14.68;71.57;96813.77;1777377;80;21010;-77
2021/06/09 04:50:58;;;;;;;8.43;7.33;;;;;;;14.69;71.65;96812.77;1760417;81;20973;-77
2021/06/09 04:53:25;;;;;;;8.30;7.00;;;;;;;14.69;71.86;96815.38;1770362;81;20968;-77
2021/06/09 04:55:53;;;;;;;8.50;6.55;;;;;;;14.71;72.07;96814.68;1777634;80;20913;-77
2021/06/09 04:58:23;;;;;;;9.73;7.12;;;;;;;14.74;71.82;96820.02;1777109;81;20944;-77
2021/06/09 05:00:49;;;;;;;8.25;6.62;;;;;;;14.80;71.83;96820.52;1773496;80;20956;-77
2021/06/09 05:03:15;;;;;;;10.48;8.93;;;;;;;14.86;71.77;96818.45;1776847;80;20933;-77
2021/06/09 05:05:41;;;;;;;10.53;8.70;;;;;;;14.94;71.12;96820.06;1776908;81;20968;-77
2021/06/09 05:08:07;;;;;;;9.08;7.10;;;;;;;15.06;70.35;96824.22;1752482;81;21313;-77
2021/06/09 05:10:35;;;;;;;7.85;6.95;;;;;;;15.15;70.86;96821.23;1769187;80;20938;-77
2021/06/09 05:13:26;;;;;;;10.68;9.53;;;;;;;15.21;71.30;96821.72;1747377;81;20970;-77
2021/06/09 05:15:56;;;;;;;8.40;7.50;;;;;;;15.29;71.02;96822.02;1773911;80;21219;-76
2021/06/09 05:18:28;;;;;;;9.18;7.75;;;;;;;15.38;71.10;96826.06;1759557;81;21110;-77
2021/06/09 05:20:53;;;;;;;8.43;7.33;;;;;;;15.42;70.79;96825.16;1755940;80;21218;-77
2021/06/09 05:23:27;;;;;;;9.55;8.20;;;;;;;15.49;70.57;96822.05;1766406;81;20953;-77
2021/06/09 05:25:54;;;;;;;10.25;8.35;;;;;;;15.54;70.70;96820.94;1760220;80;21275;-77
2021/06/09 05:28:21;;;;;;;10.82;9.73;;;;;;;15.60;70.50;96818.33;1767482;80;20928;-77
2021/06/09 05:30:47;;;;;;;11.55;10.40;;;;;;;15.64;70.08;96816.64;1765135;81;21023;-77
2021/06/09 05:33:13;;;;;;;11.68;9.50;;;;;;;15.67;69.53;96820.16;1757971;80;20899;-77
2021/06/09 05:35:38;;;;;;;10.05;9.10;;;;;;;15.76;69.27;96820.23;1776664;81;20984;-77
2021/06/09 05:38:04;;;;;;;13.43;10.38;;;;;;;15.84;69.08;96817.42;1754323;81;20901;-77
2021/06/09 05:40:30;;;;;;;11.43;10.30;;;;;;;15.93;68.65;96822.73;1771268;81;20886;-77
2021/06/09 05:42:56;;;;;;;10.90;9.18;;;;;;;16.01;68.44;96819.10;1765368;80;21017;-77
2021/06/09 05:45:30;;;;;;;11.55;10.30;;;;;;;16.06;68.33;96825.33;1778963;80;21301;-77
2021/06/09 05:47:56;;;;;;;11.33;10.23;;;;;;;16.12;68.19;96826.34;1770317;80;20893;-77
2021/06/09 05:50:25;;;;;;;12.98;11.33;;;;;;;16.16;68.07;96823.61;1780022;81;20920;-77
2021/06/09 05:52:53;;;;;;;12.03;10.20;;;;;;;16.21;67.54;96827.72;1781690;80;20913;-77
2021/06/09 05:55:23;;;;;;;10.68;9.58;;;;;;;16.28;67.79;96830.34;1771102;80;20961;-77
2021/06/09 05:57:49;;;;;;;11.33;10.20;;;;;;;16.35;67.86;96835.05;1768569;80;20977;-77
2021/06/09 06:00:17;;;;;;;14.05;10.13;;;;;;;16.40;67.80;96833.91;1764304;81;21307;-77
2021/06/09 06:02:44;;;;;;;12.55;10.65;;;;;;;16.45;67.67;96830.18;1781318;80;21326;-77
2021/06/09 06:05:11;;;;;;;16.60;11.55;;;;;;;16.47;67.52;96831.58;1774337;80;20924;-77
2021/06/09 06:07:36;;;;;;;12.70;11.00;;;;;;;16.51;67.40;96829.34;1761314;80;21278;-77
2021/06/09 06:10:05;;;;;;;13.03;11.63;;;;;;;16.59;67.60;96840.09;1743261;80;20989;-77
2021/06/09 06:12:30;;;;;;;11.75;9.33;;;;;;;16.65;66.71;96836.14;1772471;80;21039;-77
2021/06/09 06:14:56;;;;;;;16.57;12.45;;;;;;;16.70;67.45;96837.66;1764873;80;21373;-77
2021/06/09 06:17:22;;;;;;;12.80;11.35;;;;;;;16.77;66.87;96842.38;1777206;80;20965;-77
2021/06/09 06:19:50;;;;;;;13.30;11.00;;;;;;;16.87;66.67;96839.80;1757918;81;20948;-77
2021/06/09 06:22:16;;;;;;;10.50;9.43;;;;;;;16.96;67.36;96838.05;1780904;80;20976;-77
2021/06/09 06:24:44;;;;;;;9.83;8.48;;;;;;;17.02;67.64;96846.37;1778536;80;20941;-77
2021/06/09 06:27:12;;;;;;;11.95;8.35;;;;;;;17.07;67.82;96841.80;1766777;80;20921;-77
2021/06/09 06:29:38;;;;;;;11.95;10.00;;;;;;;17.10;68.18;96842.72;1764518;81;21246;-77
2021/06/09 06:32:09;;;;;;;13.00;10.43;;;;;;;17.14;68.22;96849.14;1761604;80;20981;-77
2021/06/09 06:34:37;;;;;;;11.60;10.40;;;;;;;17.20;67.62;96848.29;1763042;80;20909;-77
2021/06/09 06:37:04;;;;;;;15.53;12.03;;;;;;;17.33;67.40;96848.20;1754099;80;21306;-77
2021/06/09 06:39:29;;;;;;;13.60;11.48;;;;;;;17.45;67.08;96846.22;1753403;81;20952;-77
2021/06/09 06:41:55;;;;;;;12.65;11.38;;;;;;;17.55;67.00;96836.82;1754563;80;20956;-77
2021/06/09 06:44:21;;;;;;;17.40;12.30;;;;;;;17.66;66.81;96836.64;1788266;80;20992;-77
2021/06/09 06:46:49;;;;;;;13.32;11.78;;;;;;;17.79;66.20;96842.34;1776978;81;20968;-77
2021/06/09 06:49:17;;;;;;;12.15;9.93;;;;;;;17.91;65.94;96840.10;1767523;81;20917;-77
2021/06/09 06:51:45;;;;;;;14.15;10.65;;;;;;;18.03;66.67;96841.48;1776085;80;21305;-77
2021/06/09 06:54:11;;;;;;;10.23;9.23;;;;;;;18.13;66.04;96843.63;1755049;81;20909;-77
2021/06/09 06:56:36;;;;;;;10.95;9.63;;;;;;;18.27;65.91;96840.64;1765848;81;21285;-77
2021/06/09 06:59:02;;;;;;;12.70;9.60;;;;;;;18.40;65.05;96840.22;1774845;81;20898;-77
2021/06/09 07:01:36;;;;;;;11.85;9.58;;;;;;;18.54;64.60;96842.96;1772081;80;20948;-77
2021/06/09 07:04:03;;;;;;;12.68;10.00;;;;;;;18.67;64.97;96844.67;1778193;81;21249;-77
2021/06/09 07:06:30;;;;;;;12.58;10.32;;;;;;;18.75;64.60;96842.55;1751518;81;20948;-77
2021/06/09 07:08:56;;;;;;;12.78;10.75;;;;;;;18.82;64.53;96837.19;1751583;81;21242;-77
2021/06/09 07:11:22;;;;;;;12.75;8.90;;;;;;;18.89;64.07;96840.05;1750586;80;20961;-77
2021/06/09 07:13:50;;;;;;;11.85;10.25;;;;;;;18.99;64.62;96840.00;1750139;80;21202;-77
2021/06/09 07:16:16;;;;;;;11.55;10.10;;;;;;;19.05;64.16;96841.77;1777471;81;20909;-77
2021/06/09 07:18:46;;;;;;;12.35;11.03;;;;;;;19.16;63.70;96848.88;1773947;81;20909;-77
2021/06/09 07:21:20;;;;;;;10.23;8.23;;;;;;;19.26;63.28;96843.08;1757655;80;20909;-77
2021/06/09 07:23:46;;;;;;;10.82;9.08;;;;;;;19.33;63.80;96849.84;1758880;81;20937;-77
2021/06/09 07:26:13;;;;;;;13.48;9.85;;;;;;;19.41;63.54;96850.85;1772033;80;20977;-77
2021/06/09 07:28:43;;;;;;;11.53;9.73;;;;;;;19.53;62.54;96852.20;1775883;81;20975;-77
2021/06/09 07:31:09;;;;;;;13.43;11.00;;;;;;;19.66;62.88;96850.69;1777697;80;21020;-77
2021/06/09 07:33:35;;;;;;;13.08;10.53;;;;;;;19.75;61.86;96845.89;1749996;80;21245;-77
2021/06/09 07:36:06;;;;;;;12.18;9.78;;;;;;;19.81;61.73;96856.83;1776677;81;20952;-77
2021/06/09 07:38:36;;;;;;;12.85;10.35;;;;;;;19.87;61.76;96852.50;1758408;80;21048;-77
2021/06/09 07:41:02;;;;;;;11.80;10.58;;;;;;;19.96;61.91;96854.55;1740089;80;21035;-77
2021/06/09 07:43:33;;;;;;;10.65;9.65;;;;;;;20.03;61.35;96856.58;1768229;81;21049;-77
2021/06/09 07:45:59;;;;;;;8.95;8.08;;;;;;;20.11;61.32;96848.81;1772992;80;21047;-77
2021/06/09 07:48:25;;;;;;;11.08;8.73;;;;;;;20.20;61.81;96852.72;1750560;81;20941;-77
2021/06/09 07:51:00;;;;;;;9.68;8.43;;;;;;;20.26;60.59;96850.98;1775859;81;20909;-77
2021/06/09 07:53:26;;;;;;;9.45;8.23;;;;;;;20.31;60.49;96847.92;1757596;80;20929;-77
2021/06/09 07:55:52;;;;;;;9.25;8.13;;;;;;;20.36;60.55;96852.53;1773138;80;20914;-77
2021/06/09 07:58:23;;;;;;;9.38;8.18;;;;;;;20.43;60.43;96849.27;1768211;80;20937;-77
2021/06/09 08:00:51;;;;;;;8.80;7.90;;;;;;;20.49;60.14;96848.84;1778090;80;20928;-77
2021/06/09 08:03:17;;;;;;;8.80;7.67;;;;;;;20.57;59.81;96845.86;1761547;81;20996;-77
2021/06/09 08:05:43;;;;;;;10.58;8.50;;;;;;;20.64;59.96;96841.23;1748536;81;20976;-77
2021/06/09 08:08:11;;;;;;;10.03;7.17;;;;;;;20.75;59.98;96848.84;1761404;80;20924;-77
2021/06/09 08:10:38;;;;;;;10.90;8.53;;;;;;;20.86;59.79;96854.62;1690854;84;21067;-77
2021/06/09 08:13:03;;;;;;;8.28;7.42;;;;;;;20.95;58.94;96849.23;1781223;80;21016;-77
2021/06/09 08:15:31;;;;;;;10.25;7.25;;;;;;;21.05;59.61;96855.23;1779444;80;21230;-77
2021/06/09 08:17:57;;;;;;;8.63;7.72;;;;;;;21.13;58.69;96851.67;1781354;80;20908;-77
2021/06/09 08:20:23;;;;;;;8.85;8.00;;;;;;;21.28;59.85;96854.63;1780236;80;21246;-77
2021/06/09 08:22:49;;;;;;;10.38;8.30;;;;;;;21.44;58.97;96850.92;1773167;80;20945;-77
2021/06/09 08:25:19;;;;;;;9.30;8.28;;;;;;;21.56;58.83;96848.49;1768569;80;21024;-77
2021/06/09 08:27:48;;;;;;;9.18;7.80;;;;;;;21.71;58.78;96855.88;1776567;80;20988;-77
2021/06/09 08:30:15;;;;;;;8.93;7.60;;;;;;;21.77;57.65;96853.58;1753868;81;21242;-77
2021/06/09 08:32:41;;;;;;;11.05;8.65;;;;;;;21.85;57.74;96855.03;1771627;81;20909;-80
2021/06/09 08:35:08;;;;;;;9.65;8.55;;;;;;;21.96;56.81;96858.61;1774354;80;21317;-80
2021/06/09 08:37:35;;;;;;;10.98;8.65;;;;;;;22.06;56.56;96854.83;1754032;81;21233;-80
2021/06/09 08:40:00;;;;;;;11.90;9.43;;;;;;;22.20;56.80;96857.95;1745832;80;20959;-79
2021/06/09 08:42:27;;;;;;;11.75;9.35;;;;;;;22.31;56.47;96861.82;1753004;80;20980;-80
2021/06/09 08:44:53;;;;;;;11.10;8.90;;;;;;;22.41;56.25;96855.84;1760542;81;20988;-80
2021/06/09 08:47:21;;;;;;;13.48;10.55;;;;;;;22.54;56.26;96854.16;1770027;80;20964;-80
2021/06/09 08:49:47;;;;;;;12.37;9.90;;;;;;;22.60;55.40;96853.69;1753849;81;20941;-80
2021/06/09 08:52:13;;;;;;;8.98;8.13;;;;;;;22.73;55.49;96854.13;1764543;80;20969;-80
2021/06/09 08:54:46;;;;;;;9.58;8.33;;;;;;;22.88;54.19;96856.70;1758271;81;20997;-80
2021/06/09 08:57:13;;;;;;;11.03;8.43;;;;;;;23.02;54.38;96857.41;1752078;81;20944;-80
2021/06/09 08:59:40;;;;;;;9.23;6.87;;;;;;;23.17;54.48;96850.66;1773013;81;20963;-80
2021/06/09 09:02:08;;;;;;;9.65;7.50;;;;;;;23.30;54.00;96852.91;1772936;81;21024;-80
2021/06/09 09:04:34;;;;;;;8.40;7.47;;;;;;;23.35;53.18;96852.95;1767957;80;22020;-80
2021/06/09 09:07:00;;;;;;;7.33;6.45;;;;;;;23.39;52.15;96850.59;1764326;80;20969;-80
2021/06/09 09:09:26;;;;;;;7.75;5.97;;;;;;;23.51;50.17;96848.06;1759091;81;21243;-80
2021/06/09 09:11:52;;;;;;;6.20;5.60;;;;;;;23.51;50.17;96848.06;1747390;80;20926;-80
2021/06/09 09:14:18;;;;;;;8.18;6.60;;;;;;;23.60;50.49;96855.88;1766500;80;20887;-80
2021/06/09 09:17:05;;;;;;;7.87;6.12;;;;;;;23.72;51.33;96854.88;1765403;81;20906;-80
2021/06/09 09:19:34;;;;;;;8.00;7.20;;;;;;;23.78;49.85;96852.56;1767895;81;20937;-79
2021/06/09 09:22:00;;;;;;;10.68;6.83;;;;;;;23.71;51.03;96859.92;1772758;81;20929;-79
2021/06/09 09:24:47;;;;;;;9.50;6.72;;;;;;;23.77;50.83;96856.27;1751342;80;21187;-80
2021/06/09 09:27:16;;;;;;;8.43;6.70;;;;;;;23.83;50.64;96856.04;1773850;80;20949;-80
2021/06/09 09:30:06;;;;;;;8.50;6.45;;;;;;;23.93;51.06;96856.13;1769551;81;20945;-80
2021/06/09 09:32:33;;;;;;;7.30;6.50;;;;;;;24.07;51.42;96843.19;1750790;81;20917;-80
2021/06/09 09:35:12;;;;;;;7.33;6.00;;;;;;;24.25;50.16;96843.31;1769222;81;21024;-80
2021/06/09 09:37:38;;;;;;;8.23;6.72;;;;;;;24.21;49.80;96852.83;1772551;80;20971;-81
2021/06/09 09:40:15;;;;;;;9.00;7.33;;;;;;;24.30;49.55;96846.55;1752026;80;20925;-81
2021/06/09 09:42:49;;;;;;;8.63;5.90;;;;;;;24.50;48.36;96840.00;1702734;83;21043;-80
2021/06/09 09:45:30;;;;;;;6.78;6.08;;;;;;;24.47;49.52;96843.98;1772998;80;20965;-81
2021/06/09 09:48:18;;;;;;;8.18;5.90;;;;;;;24.34;50.08;96840.45;1773001;80;20941;-81
2021/06/09 09:50:49;;;;;;;6.97;6.05;;;;;;;24.17;49.35;96851.22;1741734;81;21254;-80
2021/06/09 09:53:23;;;;;;;9.60;6.22;;;;;;;24.27;48.72;96851.02;1755691;80;20906;-80
2021/06/09 09:56:16;;;;;;;10.23;7.62;;;;;;;24.13;48.85;96852.80;1704624;82;21298;-80
2021/06/09 09:59:05;;;;;;;8.95;8.05;;;;;;;23.85;49.08;96853.93;1705412;84;20947;-80
2021/06/09 10:01:34;;;;;;;8.68;7.58;;;;;;;23.68;49.48;96850.62;1756386;80;21277;-81
2021/06/09 10:04:01;;;;;;;9.03;7.97;;;;;;;23.55;50.26;96849.67;1776339;81;21301;-80
2021/06/09 10:06:42;;;;;;;9.43;8.20;;;;;;;23.53;50.30;96850.45;1751582;81;20940;-80
2021/06/09 10:09:29;;;;;;;8.25;7.42;;;;;;;23.51;50.53;96851.23;1751289;81;20905;-80
2021/06/09 10:12:02;;;;;;;10.68;9.53;;;;;;;23.63;50.65;96846.61;1749899;80;20973;-81
2021/06/09 10:14:41;;;;;;;10.13;9.23;;;;;;;23.65;50.66;96845.82;1774899;81;20932;-80
2021/06/09 10:17:10;;;;;;;11.38;8.80;;;;;;;23.67;51.06;96846.36;1757899;80;21290;-80
2021/06/09 10:19:47;;;;;;;12.05;9.55;;;;;;;23.77;51.20;96851.77;1753435;80;20925;-80
2021/06/09 10:22:19;;;;;;;9.15;8.20;;;;;;;23.76;51.41;96846.70;1774068;80;20957;-81
2021/06/09 10:24:54;;;;;;;9.58;8.48;;;;;;;23.73;50.93;96844.02;1777423;81;21282;-80
2021/06/09 10:27:39;;;;;;;10.13;9.13;;;;;;;23.71;52.11;96844.80;1771468;81;21357;-81
2021/06/09 10:30:26;;;;;;;10.30;8.68;;;;;;;23.60;51.30;96847.12;1768143;80;20981;-80
2021/06/09 10:32:59;;;;;;;10.15;9.15;;;;;;;23.67;52.08;96838.94;1766732;80;20917;-81
2021/06/09 10:35:29;;;;;;;10.53;8.33;;;;;;;23.88;50.74;96836.69;1777798;80;20978;-80
2021/06/09 10:37:55;;;;;;;10.13;8.88;;;;;;;24.03;50.36;96838.65;1777831;81;21034;-80
2021/06/09 10:40:25;;;;;;;10.20;9.08;;;;;;;24.04;49.91;96843.70;1733457;80;20981;-81
2021/06/09 10:42:50;;;;;;;10.03;8.25;;;;;;;24.07;50.39;96835.22;1778090;80;21025;-80
2021/06/09 10:45:16;;;;;;;9.10;7.92;;;;;;;24.23;50.75;96834.78;1780082;80;21316;-80
2021/06/09 10:47:43;;;;;;;9.50;8.23;;;;;;;24.42;49.95;96828.03;1779774;80;20968;-81
2021/06/09 10:50:09;;;;;;;9.65;8.03;;;;;;;24.59;49.60;96825.17;1762490;81;20940;-81
2021/06/09 10:52:35;;;;;;;10.55;8.80;;;;;;;24.68;49.05;96831.57;1770376;80;21020;-81
2021/06/09 10:55:09;;;;;;;8.45;7.53;;;;;;;24.83;48.40;96830.83;1772730;80;20917;-80
2021/06/09 10:57:36;;;;;;;9.68;7.03;;;;;;;24.89;47.89;96831.63;1755304;80;20993;-80
2021/06/09 11:00:07;;;;;;;6.78;6.03;;;;;;;24.92;47.46;96827.94;1773093;80;20924;-81
2021/06/09 11:02:33;;;;;;;8.45;7.65;;;;;;;25.07;47.45;96819.23;1777474;80;20965;-81
2021/06/09 11:05:08;;;;;;;7.67;7.00;;;;;;;24.96;47.35;96819.70;1761640;80;21214;-81
2021/06/09 11:07:40;;;;;;;12.10;6.90;;;;;;;24.78;47.02;96820.98;1779748;80;20897;-80
2021/06/09 11:10:13;;;;;;;9.80;6.95;;;;;;;24.46;48.07;96825.13;1779572;80;20913;-81
2021/06/09 11:12:43;;;;;;;6.87;6.10;;;;;;;24.25;47.94;96819.42;1777738;80;20967;-80
2021/06/09 11:15:14;;;;;;;8.38;6.55;;;;;;;24.13;50.03;96823.59;1780354;80;21226;-81
2021/06/09 11:17:52;;;;;;;8.47;6.70;;;;;;;24.04;48.39;96826.97;1769735;80;21284;-80
2021/06/09 11:20:38;;;;;;;8.43;6.42;;;;;;;23.88;47.88;96817.59;1780053;80;20972;-80
2021/06/09 11:23:06;;;;;;;9.10;6.20;;;;;;;23.83;49.42;96820.22;1765380;81;21327;-80
2021/06/09 11:25:39;;;;;;;6.67;6.17;;;;;;;23.83;49.42;96820.22;1758568;81;20984;-80
2021/06/09 11:28:14;;;;;;;9.85;6.83;;;;;;;23.83;50.50;96826.84;1749344;80;21296;-80
2021/06/09 11:30:55;;;;;;;7.70;5.97;;;;;;;23.87;49.43;96811.21;1754045;80;20945;-80
2021/06/09 11:33:54;;;;;;;7.58;6.80;;;;;;;23.85;50.60;96814.13;1771988;80;20941;-80
2021/06/09 11:36:28;;;;;;;9.33;7.17;;;;;;;23.80;49.12;96807.99;1762924;80;20983;-80
2021/06/09 11:39:00;;;;;;;7.87;6.30;;;;;;;23.67;48.38;96809.75;1779698;80;20952;-80
2021/06/09 11:41:44;;;;;;;6.87;6.10;;;;;;;23.65;49.88;96813.46;1781667;80;20960;-80
2021/06/09 11:44:29;;;;;;;7.03;5.90;;;;;;;23.61;50.25;96813.70;1773449;80;21014;-80